Time;durP1;ratioP1;P1;durP2;ratioP2;P2;SDS_P1;SDS_P2;PMS_P1;PMS_P2;Temp;Humidity;BMP_temperature;BMP_pressure;BME280_temperature;BME280_humidity;BME280_pressure;Samples;Min_cycle;Max_cycle;Signal;HPM_P1;HPM_P2
2023/08/29 00:00:14;;;;;;;5.18;2.05;;;;;;;14.81;95.17;100130.34;4912574;29;20046;-65
2023/08/29 00:03:17;;;;;;;5.30;2.53;;;;;;;14.81;95.21;100135.59;4912538;29;20131;-65
2023/08/29 00:06:21;;;;;;;6.47;2.58;;;;;;;14.78;94.25;100138.47;4915744;29;20043;-65
2023/08/29 00:09:24;;;;;;;3.67;2.53;;;;;;;14.69;93.86;100131.25;4913753;29;20043;-65
2023/08/29 00:12:27;;;;;;;7.35;2.58;;;;;;;14.71;94.27;100130.19;4913736;29;20043;-65
2023/08/29 00:15:32;;;;;;;5.07;2.35;;;;;;;14.74;94.54;100137.88;4916353;29;20050;-65
2023/08/29 00:18:35;;;;;;;6.13;2.13;;;;;;;14.76;94.43;100129.84;4916244;29;20054;-65
2023/08/29 00:21:38;;;;;;;4.10;2.20;;;;;;;14.68;95.05;100124.31;4905122;29;20102;-65
2023/08/29 00:24:45;;;;;;;4.25;2.17;;;;;;;14.62;94.55;100123.81;4916749;29;20083;-65
2023/08/29 00:27:48;;;;;;;6.05;2.45;;;;;;;14.62;94.31;100123.81;4916537;29;20047;-65
2023/08/29 00:30:53;;;;;;;3.63;2.42;;;;;;;14.61;94.78;100131.81;4916481;29;20102;-64
2023/08/29 00:33:59;;;;;;;4.50;2.40;;;;;;;14.55;95.06;100137.53;4904591;29;20090;-65
2023/08/29 00:37:03;;;;;;;4.40;2.33;;;;;;;14.61;94.58;100140.56;4880544;29;20051;-65
2023/08/29 00:40:07;;;;;;;7.07;2.50;;;;;;;14.61;94.40;100139.72;4896737;29;20075;-66
2023/08/29 00:43:10;;;;;;;3.97;2.83;;;;;;;14.49;93.69;100138.84;4897019;29;20055;-65
2023/08/29 00:46:15;;;;;;;5.57;2.70;;;;;;;14.52;93.60;100148.31;4892199;29;20488;-65
2023/08/29 00:49:27;;;;;;;5.15;2.78;;;;;;;14.29;95.20;100152.59;4897760;29;20112;-65
2023/08/29 00:52:30;;;;;;;5.85;2.83;;;;;;;14.33;95.04;100154.91;4897207;29;20100;-65
2023/08/29 00:55:35;;;;;;;4.97;2.92;;;;;;;14.21;95.45;100152.34;4885726;29;20187;-64
2023/08/29 00:58:39;;;;;;;3.30;2.25;;;;;;;14.34;94.93;100151.31;4897365;29;20043;-65
2023/08/29 01:01:49;;;;;;;5.70;2.55;;;;;;;14.47;94.22;100159.13;4885729;29;20099;-65
2023/08/29 01:04:53;;;;;;;3.65;2.38;;;;;;;14.59;93.79;100170.59;4897213;29;20101;-65
2023/08/29 01:07:59;;;;;;;7.18;2.53;;;;;;;14.56;93.69;100165.56;4897613;29;20107;-65
2023/08/29 01:11:16;;;;;;;5.10;2.70;;;;;;;14.53;93.44;100166.63;4897283;29;20139;-65
2023/08/29 01:15:03;;;;;;;4.53;2.90;;;;;;;14.47;93.77;100167.03;4897233;29;20059;-65
2023/08/29 01:18:11;;;;;;;7.30;2.40;;;;;;;14.47;94.06;100166.19;4885699;29;20047;-65
2023/08/29 01:21:34;;;;;;;6.15;2.70;;;;;;;14.51;94.03;100170.31;4885560;29;20566;-65
2023/08/29 01:24:54;;;;;;;6.15;2.70;;;;;;;14.50;94.07;100172.06;4911335;29;20095;-65
2023/08/29 01:27:59;;;;;;;6.30;2.65;;;;;;;14.60;93.62;100178.34;4900967;29;20058;-65
2023/08/29 01:31:06;;;;;;;5.70;2.50;;;;;;;14.65;93.38;100192.00;4912210;29;20099;-65
2023/08/29 01:34:10;;;;;;;5.32;2.65;;;;;;;14.60;94.06;100194.13;4912554;29;20513;-65
2023/08/29 01:37:13;;;;;;;6.88;2.88;;;;;;;14.64;93.91;100195.59;4909080;29;20509;-65
2023/08/29 01:40:17;;;;;;;4.78;2.53;;;;;;;14.59;94.22;100191.63;4911502;29;20043;-65
2023/08/29 01:43:20;;;;;;;5.38;2.40;;;;;;;14.58;94.39;100196.06;4911958;29;20094;-65
2023/08/29 01:46:26;;;;;;;6.22;2.40;;;;;;;14.65;94.19;100199.06;4912485;29;20154;-65
2023/08/29 01:49:32;;;;;;;4.95;2.65;;;;;;;14.65;94.24;100197.28;4909984;29;20047;-65
2023/08/29 01:52:36;;;;;;;5.93;2.70;;;;;;;14.64;94.09;100200.88;4910730;29;20075;-65
2023/08/29 01:55:40;;;;;;;5.25;3.45;;;;;;;14.57;94.82;100198.78;4911750;29;20035;-65
2023/08/29 01:58:45;;;;;;;8.95;3.00;;;;;;;14.40;95.24;100192.94;4905972;29;20063;-65
2023/08/29 02:01:52;;;;;;;5.53;3.30;;;;;;;14.23;97.03;100200.38;4904507;29;20110;-65
2023/08/29 02:04:56;;;;;;;4.10;2.58;;;;;;;14.38;96.36;100189.59;4903471;29;20418;-65
2023/08/29 02:07:59;;;;;;;4.88;3.03;;;;;;;14.46;95.85;100182.94;4914578;29;20141;-65
2023/08/29 02:11:08;;;;;;;4.53;2.78;;;;;;;14.51;95.97;100179.03;4904691;29;20054;-65
2023/08/29 02:14:15;;;;;;;5.63;2.60;;;;;;;14.57;95.43;100168.06;4899152;29;20044;-65
2023/08/29 02:17:19;;;;;;;6.60;2.70;;;;;;;14.54;95.36;100164.81;4898601;29;20050;-65
2023/08/29 02:20:23;;;;;;;6.35;3.30;;;;;;;14.47;95.94;100151.25;4914707;29;20083;-65
2023/08/29 02:23:27;;;;;;;8.07;3.83;;;;;;;14.33;96.95;100138.28;4903257;29;20091;-64
2023/08/29 02:26:30;;;;;;;4.18;2.67;;;;;;;14.43;96.46;100139.28;4918127;29;20054;-64
2023/08/29 02:29:33;;;;;;;4.97;2.53;;;;;;;14.41;96.42;100141.19;4918553;29;20501;-65
2023/08/29 02:32:38;;;;;;;5.95;2.60;;;;;;;14.46;96.36;100139.06;4918778;29;20069;-65
2023/08/29 02:35:41;;;;;;;4.05;2.70;;;;;;;14.40;96.95;100135.09;4918346;29;20039;-64
2023/08/29 02:38:45;;;;;;;4.70;2.53;;;;;;;14.47;95.68;100135.47;4918413;29;20051;-64
2023/08/29 02:41:49;;;;;;;6.97;3.00;;;;;;;14.41;95.79;100134.13;4918469;29;20076;-64
2023/08/29 02:44:52;;;;;;;4.97;2.65;;;;;;;14.42;95.66;100138.44;4917646;29;20047;-65
2023/08/29 02:47:56;;;;;;;4.85;2.80;;;;;;;14.32;96.62;100131.34;4918226;29;20047;-64
2023/08/29 02:51:00;;;;;;;6.82;2.45;;;;;;;14.32;96.47;100126.06;4918193;29;20059;-65
2023/08/29 02:54:03;;;;;;;7.80;3.00;;;;;;;14.32;96.76;100110.28;4918221;29;20499;-65
2023/08/29 02:57:07;;;;;;;7.13;2.83;;;;;;;14.34;96.71;100116.28;4918151;29;20059;-65
2023/08/29 03:00:11;;;;;;;6.30;3.10;;;;;;;14.27;96.34;100112.44;4918078;29;20046;-65
2023/08/29 03:03:15;;;;;;;4.57;2.85;;;;;;;14.26;96.95;100111.59;4902152;29;20043;-65
2023/08/29 03:06:18;;;;;;;5.20;2.58;;;;;;;14.29;96.84;100110.53;4917782;29;20075;-64
2023/08/29 03:09:22;;;;;;;6.28;2.47;;;;;;;14.24;97.36;100104.78;4917993;29;20055;-65
2023/08/29 03:12:25;;;;;;;4.40;2.47;;;;;;;14.24;97.02;100100.38;4917860;29;20406;-65
2023/08/29 03:15:34;;;;;;;5.85;2.60;;;;;;;14.19;97.04;100099.84;4906116;29;20637;-65
2023/08/29 03:18:38;;;;;;;7.45;3.22;;;;;;;14.25;97.02;100095.94;4905974;29;20099;-65
2023/08/29 03:21:42;;;;;;;3.63;2.78;;;;;;;14.25;96.64;100099.41;4917649;29;20055;-64
2023/08/29 03:24:46;;;;;;;4.40;2.58;;;;;;;14.20;97.27;100093.66;4905992;29;20054;-64
2023/08/29 03:27:49;;;;;;;4.75;2.85;;;;;;;14.14;97.42;100087.06;4905445;29;20417;-65
2023/08/29 03:30:52;;;;;;;4.13;2.83;;;;;;;14.19;97.00;100084.91;4899180;29;20050;-64
2023/08/29 03:33:56;;;;;;;4.60;3.05;;;;;;;14.21;96.92;100082.19;4905684;29;20406;-64
2023/08/29 03:37:01;;;;;;;7.25;2.50;;;;;;;14.26;96.91;100073.94;4905630;29;20071;-65
2023/08/29 03:40:05;;;;;;;7.80;2.92;;;;;;;14.28;96.38;100080.75;4917371;29;20078;-65
2023/08/29 03:43:09;;;;;;;7.00;3.08;;;;;;;14.24;96.45;100075.88;4917519;29;20051;-65
2023/08/29 03:46:13;;;;;;;4.65;3.08;;;;;;;14.26;96.91;100073.94;4905646;29;20051;-64
2023/08/29 03:49:16;;;;;;;7.13;3.05;;;;;;;14.24;96.71;100075.88;4916625;29;20055;-65
2023/08/29 03:52:24;;;;;;;6.30;2.63;;;;;;;14.26;96.31;100080.03;4916558;29;20055;-65
2023/08/29 03:55:27;;;;;;;10.45;4.20;;;;;;;14.28;96.19;100077.31;4905235;29;20421;-65
2023/08/29 03:58:31;;;;;;;3.50;2.92;;;;;;;14.25;96.11;100086.25;4905351;29;20046;-65
2023/08/29 04:01:35;;;;;;;8.35;2.78;;;;;;;14.25;96.27;100098.56;4905621;29;20055;-65
2023/08/29 04:04:38;;;;;;;7.43;2.83;;;;;;;14.29;95.68;100098.22;4904721;29;20103;-65
2023/08/29 04:07:42;;;;;;;;;;;;;;;14.23;96.19;100100.47;4917143;29;20042;-65
2023/08/29 04:10:45;;;;;;;5.40;3.38;;;;;;;14.14;96.88;100102.84;4905190;29;19922;-65
2023/08/29 04:13:48;;;;;;;4.30;2.67;;;;;;;14.14;96.91;100107.25;4916689;29;20139;-65
2023/08/29 04:16:52;;;;;;;5.90;3.17;;;;;;;14.10;97.07;100101.41;4915659;29;20131;-65
2023/08/29 04:19:56;;;;;;;5.75;3.40;;;;;;;14.23;97.32;100114.47;4915372;29;20048;-65
2023/08/29 04:23:02;;;;;;;;;;;;;;;14.45;96.25;100113.69;4917120;29;20042;-65
2023/08/29 04:26:06;;;;;;;6.07;3.13;;;;;;;14.53;94.81;100107.91;4916535;29;19922;-65
2023/08/29 04:29:10;;;;;;;6.05;2.92;;;;;;;14.68;94.30;100105.88;4916400;29;20184;-65
2023/08/29 04:32:13;;;;;;;5.65;2.65;;;;;;;14.70;93.55;100103.97;4912221;29;20133;-65
2023/08/29 04:35:17;;;;;;;4.28;2.50;;;;;;;14.63;93.57;100109.72;4916470;29;20074;-65
2023/08/29 04:38:20;;;;;;;5.38;2.97;;;;;;;14.64;93.65;100102.66;4901453;29;20144;-65
2023/08/29 04:41:23;;;;;;;8.27;3.22;;;;;;;14.65;93.30;100101.72;4904754;29;20406;-65
2023/08/29 04:44:26;;;;;;;5.05;2.65;;;;;;;14.65;93.28;100102.53;4904463;29;20558;-65
2023/08/29 04:47:30;;;;;;;5.85;3.65;;;;;;;14.63;93.34;100104.44;4904140;29;20051;-65
2023/08/29 04:50:33;;;;;;;4.85;3.13;;;;;;;14.51;93.72;100105.38;4903138;29;20051;-65
2023/08/29 04:53:37;;;;;;;5.32;3.03;;;;;;;14.42;94.46;100106.88;4913781;29;20059;-65
2023/08/29 04:56:40;;;;;;;5.05;3.20;;;;;;;14.34;95.40;100109.25;4915341;29;20449;-65
2023/08/29 04:59:44;;;;;;;5.45;3.10;;;;;;;14.37;95.48;100111.63;4902268;29;20080;-65
2023/08/29 05:02:47;;;;;;;8.10;3.20;;;;;;;14.32;95.79;100110.28;4903163;29;20188;-65
2023/08/29 05:05:52;;;;;;;5.03;2.90;;;;;;;14.35;95.69;100112.69;4895985;29;20075;-65
2023/08/29 05:08:55;;;;;;;7.22;2.95;;;;;;;14.35;95.66;100113.53;4896603;29;20043;-65
2023/08/29 05:12:00;;;;;;;5.15;2.40;;;;;;;14.40;95.10;100106.16;4903100;29;20134;-65
2023/08/29 05:15:08;;;;;;;5.57;3.30;;;;;;;14.38;95.14;100109.84;4892188;29;20136;-65
2023/08/29 05:18:15;;;;;;;5.38;3.30;;;;;;;14.37;95.53;100109.00;4899673;29;20146;-65
2023/08/29 05:21:19;;;;;;;8.10;3.03;;;;;;;14.33;96.24;100104.09;4914660;29;20100;-65
2023/08/29 05:24:22;;;;;;;3.72;3.22;;;;;;;14.33;95.83;100109.38;4911632;29;20051;-65
2023/08/29 05:27:25;;;;;;;4.68;2.90;;;;;;;14.32;96.14;100110.28;4914012;29;20118;-65
2023/08/29 05:30:30;;;;;;;6.28;3.22;;;;;;;14.25;96.53;100106.47;4914887;29;20051;-65
2023/08/29 05:33:33;;;;;;;6.30;3.75;;;;;;;14.28;96.38;100103.59;4917316;29;20043;-64
2023/08/29 05:36:37;;;;;;;5.78;3.33;;;;;;;14.31;96.46;100108.63;4918636;29;20153;-65
2023/08/29 05:39:40;;;;;;;6.60;3.67;;;;;;;14.30;96.66;100102.53;4918177;29;20051;-65
2023/08/29 05:42:43;;;;;;;;;;;;;;;14.34;96.91;100103.16;4918651;29;20116;-65
2023/08/29 05:45:46;;;;;;;4.97;4.00;;;;;;;14.36;96.81;100098.63;4918238;29;20384;-65
2023/08/29 05:48:50;;;;;;;4.53;3.63;;;;;;;14.41;96.59;100093.84;4917940;29;20081;-66
2023/08/29 05:51:53;;;;;;;6.05;4.43;;;;;;;14.43;96.90;100099.81;4918197;29;20131;-66
2023/08/29 05:54:57;;;;;;;8.32;4.03;;;;;;;14.41;97.28;100099.09;4917939;29;20088;-67
2023/08/29 05:58:00;;;;;;;5.30;3.90;;;;;;;14.45;97.86;100103.16;4918111;29;20414;-66
2023/08/29 06:01:06;;;;;;;4.43;3.72;;;;;;;14.50;97.58;100103.66;4918457;29;20070;-67
2023/08/29 06:04:10;;;;;;;5.60;4.22;;;;;;;14.46;97.85;100096.13;4906159;29;20527;-67
2023/08/29 06:07:13;;;;;;;7.82;4.30;;;;;;;14.61;97.06;100095.84;4913818;29;20099;-66
2023/08/29 06:10:16;;;;;;;4.28;3.45;;;;;;;14.62;97.10;100097.50;4917851;29;20051;-66
2023/08/29 06:13:20;;;;;;;6.75;4.63;;;;;;;14.67;96.60;100097.16;4918094;29;20099;-65
2023/08/29 06:16:23;;;;;;;5.75;4.20;;;;;;;14.73;96.71;100093.22;4914669;29;20119;-66
2023/08/29 06:19:26;;;;;;;7.25;4.70;;;;;;;14.74;96.45;100090.50;4917956;29;20555;-66
2023/08/29 06:22:30;;;;;;;8.55;4.47;;;;;;;14.79;96.32;100092.75;4917231;29;20051;-67
2023/08/29 06:25:33;;;;;;;7.10;4.78;;;;;;;14.77;97.01;100094.66;4916941;29;20051;-67
2023/08/29 06:28:37;;;;;;;6.85;6.00;;;;;;;14.60;96.71;100095.94;4916961;29;20047;-67
2023/08/29 06:31:41;;;;;;;9.68;5.50;;;;;;;14.58;96.90;100096.09;4905530;29;20410;-67
2023/08/29 06:34:44;;;;;;;8.02;5.22;;;;;;;14.65;97.16;100099.09;4917149;29;20517;-68
2023/08/29 06:37:49;;;;;;;10.85;5.93;;;;;;;14.74;96.70;100087.00;4917082;29;20509;-67
2023/08/29 06:40:58;;;;;;;6.05;5.22;;;;;;;14.83;97.13;100089.75;4917010;29;20362;-67
2023/08/29 06:44:01;;;;;;;10.10;6.35;;;;;;;14.81;97.15;100085.59;4916022;29;20055;-67
2023/08/29 06:47:05;;;;;;;9.50;6.28;;;;;;;14.86;97.50;100089.53;4916894;29;20534;-67
2023/08/29 06:50:08;;;;;;;9.48;8.35;;;;;;;14.77;97.64;100079.72;4916826;29;20051;-67
2023/08/29 06:53:12;;;;;;;8.90;8.05;;;;;;;14.80;97.50;100099.69;4917072;29;20466;-67
2023/08/29 06:56:15;;;;;;;9.48;8.35;;;;;;;14.89;97.74;100094.56;4916824;29;20577;-67
2023/08/29 06:59:18;;;;;;;11.15;8.88;;;;;;;15.15;95.90;100098.75;4916804;29;20107;-67
2023/08/29 07:02:21;;;;;;;12.07;8.38;;;;;;;15.31;95.07;100099.22;4916849;29;20051;-67
2023/08/29 07:05:28;;;;;;;9.48;8.57;;;;;;;15.39;95.82;100107.38;4917092;29;20055;-66
2023/08/29 07:08:31;;;;;;;9.43;7.93;;;;;;;15.30;96.36;100103.66;4916638;29;20078;-66
2023/08/29 07:11:35;;;;;;;14.45;8.43;;;;;;;15.52;95.13;100097.53;4916803;29;20082;-68
2023/08/29 07:14:38;;;;;;;12.70;11.45;;;;;;;15.46;92.20;100097.19;4916526;29;20094;-67
2023/08/29 07:17:42;;;;;;;14.15;12.68;;;;;;;15.54;90.05;100111.44;4916691;29;20059;-67
2023/08/29 07:20:47;;;;;;;12.27;10.98;;;;;;;15.67;89.91;100110.50;4916567;29;20047;-66
2023/08/29 07:23:51;;;;;;;12.57;11.27;;;;;;;15.80;88.21;100116.44;4916347;29;20043;-66
2023/08/29 07:26:56;;;;;;;14.20;11.90;;;;;;;15.73;87.19;100107.34;4916766;29;20115;-66
2023/08/29 07:30:00;;;;;;;16.45;13.23;;;;;;;15.76;86.52;100109.72;4915882;29;20605;-66
2023/08/29 07:33:04;;;;;;;16.75;15.15;;;;;;;15.59;88.12;100109.25;4915977;29;20466;-66
2023/08/29 07:36:07;;;;;;;15.85;14.35;;;;;;;15.62;89.05;100115.25;4911313;29;20117;-66
2023/08/29 07:39:12;;;;;;;17.08;14.63;;;;;;;15.74;87.47;100114.31;4911086;29;20471;-66
2023/08/29 07:42:16;;;;;;;17.20;15.52;;;;;;;15.71;87.69;100114.56;4916064;29;20046;-66
2023/08/29 07:45:19;;;;;;;16.98;14.80;;;;;;;15.77;87.94;100116.69;4915305;29;20047;-66
2023/08/29 07:48:22;;;;;;;16.45;14.70;;;;;;;15.73;86.62;100120.50;4916179;29;20532;-66
2023/08/29 07:51:26;;;;;;;15.90;13.57;;;;;;;16.02;85.30;100121.66;4915830;29;20500;-66
2023/08/29 07:54:31;;;;;;;13.60;12.23;;;;;;;16.26;84.47;100110.88;4914918;29;20047;-66
2023/08/29 07:57:36;;;;;;;15.57;13.35;;;;;;;16.34;83.64;100118.19;4915707;29;20205;-66
2023/08/29 08:00:41;;;;;;;15.20;13.70;;;;;;;16.32;83.53;100117.47;4915864;29;20430;-66
2023/08/29 08:03:44;;;;;;;18.73;13.30;;;;;;;16.27;83.91;100120.50;4915570;29;20043;-67
2023/08/29 08:06:48;;;;;;;13.75;12.27;;;;;;;16.40;84.43;100125.59;4914860;29;20170;-66
2023/08/29 08:09:51;;;;;;;13.82;12.38;;;;;;;16.62;83.34;100126.41;4915327;29;20050;-67
2023/08/29 08:12:54;;;;;;;14.32;12.93;;;;;;;16.61;82.57;100132.66;4914803;29;20051;-67
2023/08/29 08:15:58;;;;;;;14.00;12.70;;;;;;;16.62;82.88;100135.16;4914630;29;20050;-69
2023/08/29 08:19:01;;;;;;;13.63;12.23;;;;;;;16.59;83.11;100142.50;4914471;29;20662;-66
2023/08/29 08:22:05;;;;;;;13.85;12.32;;;;;;;16.63;82.54;100128.09;4914554;29;20541;-66
2023/08/29 08:25:10;;;;;;;15.18;13.68;;;;;;;16.67;81.89;100138.28;4909532;29;20043;-66
2023/08/29 08:28:22;;;;;;;14.23;12.90;;;;;;;16.88;81.25;100135.66;4914855;29;20046;-66
2023/08/29 08:31:35;;;;;;;13.90;12.18;;;;;;;16.90;80.81;100138.16;4915548;29;20522;-66
2023/08/29 08:34:38;;;;;;;12.75;11.48;;;;;;;17.11;80.02;100132.88;4914508;29;20047;-66
2023/08/29 08:37:41;;;;;;;14.35;11.95;;;;;;;17.08;79.08;100135.78;4914541;29;20103;-67
2023/08/29 08:40:45;;;;;;;12.75;11.45;;;;;;;17.26;79.08;100128.91;4914758;29;20184;-66
2023/08/29 08:43:49;;;;;;;11.95;10.73;;;;;;;17.31;78.60;100134.63;4914423;29;20074;-69
2023/08/29 08:46:52;;;;;;;12.73;10.77;;;;;;;17.43;77.68;100130.06;4914274;29;20516;-65
2023/08/29 08:49:55;;;;;;;13.02;11.05;;;;;;;17.47;76.33;100135.94;4914155;29;20051;-68
2023/08/29 08:53:00;;;;;;;13.32;11.93;;;;;;;17.41;76.61;100138.13;4914338;29;20047;-65
2023/08/29 08:56:04;;;;;;;12.15;9.82;;;;;;;17.53;76.98;100133.59;4914718;29;20105;-65
2023/08/29 08:59:07;;;;;;;15.10;11.13;;;;;;;17.25;76.74;100143.06;4914759;29;20471;-66
2023/08/29 09:02:14;;;;;;;14.13;11.50;;;;;;;17.17;76.65;100138.47;4910049;29;20131;-67
2023/08/29 09:05:19;;;;;;;13.02;11.40;;;;;;;17.28;76.50;100142.81;4916885;29;20055;-65
2023/08/29 09:08:22;;;;;;;12.75;10.07;;;;;;;17.53;75.24;100140.69;4921510;29;20076;-66
2023/08/29 09:11:26;;;;;;;12.73;11.07;;;;;;;17.53;74.19;100140.69;4921034;29;20050;-70
2023/08/29 09:14:31;;;;;;;13.15;10.93;;;;;;;17.64;73.64;100144.06;4920842;29;20140;-64
2023/08/29 09:17:34;;;;;;;11.68;9.23;;;;;;;17.67;74.32;100148.22;4920303;29;20091;-65
2023/08/29 09:20:45;;;;;;;12.02;9.73;;;;;;;17.58;74.12;100149.88;4919950;29;20146;-74
2023/08/29 09:23:50;;;;;;;10.82;9.73;;;;;;;17.73;73.78;100146.84;4920282;29;20422;-65
2023/08/29 09:26:53;;;;;;;12.30;9.85;;;;;;;17.91;73.18;100147.06;4920677;29;20047;-65
2023/08/29 09:30:13;;;;;;;10.15;8.82;;;;;;;18.16;73.17;100151.84;4920766;29;20158;-77
2023/08/29 09:33:20;;;;;;;10.18;8.35;;;;;;;18.07;72.29;100139.44;4917452;29;20047;-71
2023/08/29 09:36:24;;;;;;;8.70;7.80;;;;;;;18.17;71.58;100150.03;4920355;29;20055;-73
2023/08/29 09:39:27;;;;;;;10.70;7.85;;;;;;;18.11;71.50;100151.41;4920276;29;20529;-75
2023/08/29 09:42:31;;;;;;;8.30;6.55;;;;;;;18.32;68.80;100146.00;4920694;29;20188;-75
2023/08/29 09:45:37;;;;;;;16.75;7.07;;;;;;;18.04;68.61;100145.00;4920226;29;20051;-73
2023/08/29 09:48:56;;;;;;;9.63;7.07;;;;;;;18.00;71.98;100143.63;4920973;29;20090;-76
2023/08/29 09:52:02;;;;;;;12.90;6.47;;;;;;;18.18;70.30;100141.94;4915976;29;20183;-70
2023/08/29 09:55:11;;;;;;;9.90;6.55;;;;;;;18.10;70.68;100144.44;4913999;29;20063;-70
2023/08/29 09:58:17;;;;;;;9.88;6.60;;;;;;;18.17;68.79;100142.91;4917324;29;20042;-71
2023/08/29 10:01:22;;;;;;;10.45;6.47;;;;;;;18.46;69.21;100136.78;4917261;29;20047;-71
2023/08/29 10:04:29;;;;;;;9.68;6.35;;;;;;;18.65;68.21;100134.13;4913338;29;20090;-70
2023/08/29 10:07:51;;;;;;;10.05;7.10;;;;;;;18.76;67.67;100125.19;4904185;29;20079;-69
2023/08/29 10:10:59;;;;;;;12.88;7.30;;;;;;;18.85;68.80;100119.06;4917672;29;20091;-69
2023/08/29 10:14:04;;;;;;;9.88;6.10;;;;;;;18.92;68.81;100119.31;4916077;29;20050;-77
2023/08/29 10:17:09;;;;;;;9.15;7.60;;;;;;;18.59;67.33;100122.28;4911767;29;20196;-70
2023/08/29 10:20:13;;;;;;;9.60;6.38;;;;;;;18.59;67.05;100118.81;4909735;29;20418;-68
2023/08/29 10:23:18;;;;;;;7.55;6.15;;;;;;;18.71;68.17;100117.66;4909671;29;20059;-70
2023/08/29 10:26:23;;;;;;;8.48;6.25;;;;;;;18.76;66.24;100110.19;4913836;29;20074;-70
2023/08/29 10:29:26;;;;;;;10.25;6.03;;;;;;;18.51;68.18;100105.44;4914406;29;20046;-69
2023/08/29 10:32:31;;;;;;;7.97;5.60;;;;;;;18.35;68.10;100108.66;4914973;29;20169;-70
2023/08/29 10:35:35;;;;;;;8.25;6.63;;;;;;;18.54;67.93;100106.00;4915346;29;20047;-69
2023/08/29 10:38:48;;;;;;;7.25;5.72;;;;;;;18.48;68.08;100101.28;4911812;29;20165;-74
2023/08/29 10:41:55;;;;;;;7.82;5.40;;;;;;;18.63;67.03;100093.69;4905673;29;20519;-68
2023/08/29 10:44:58;;;;;;;7.60;5.30;;;;;;;18.51;66.88;100089.56;4905749;29;20079;-71
2023/08/29 10:48:02;;;;;;;8.43;6.45;;;;;;;18.48;67.33;100084.56;4902370;29;20047;-71
2023/08/29 10:51:13;;;;;;;7.97;5.95;;;;;;;18.55;67.61;100090.94;4914973;29;20123;-71
2023/08/29 10:54:16;;;;;;;10.75;6.30;;;;;;;18.66;68.64;100082.00;4912450;29;20107;-72
2023/08/29 10:57:30;;;;;;;8.32;4.70;;;;;;;18.85;67.10;100070.53;4912051;29;20058;-71
2023/08/29 11:00:37;;;;;;;7.20;5.32;;;;;;;18.85;66.23;100073.19;4909583;29;20043;-72
2023/08/29 11:03:46;;;;;;;8.93;5.90;;;;;;;18.95;65.29;100074.00;4911882;29;20058;-70
2023/08/29 11:06:56;;;;;;;9.02;5.72;;;;;;;18.97;63.10;100064.91;4892463;29;20047;-66
2023/08/29 11:10:30;;;;;;;8.20;5.75;;;;;;;18.76;65.36;100067.78;4898010;29;20052;-71
2023/08/29 11:13:33;;;;;;;;;;;;;;;19.02;63.22;100067.16;4902397;29;20050;-72
2023/08/29 11:17:22;;;;;;;6.45;4.72;;;;;;;19.01;62.11;100061.00;4915383;29;19926;-72
2023/08/29 11:20:26;;;;;;;6.72;4.82;;;;;;;19.06;61.63;100055.28;4913395;29;20653;-72
2023/08/29 11:23:33;;;;;;;7.93;5.20;;;;;;;18.84;62.77;100058.28;4914246;29;20390;-72
2023/08/29 11:26:43;;;;;;;5.47;4.20;;;;;;;18.98;63.93;100055.16;4915775;29;20581;-72
2023/08/29 11:29:46;;;;;;;5.93;3.78;;;;;;;19.26;60.70;100054.19;4915202;29;20050;-73
2023/08/29 11:32:50;;;;;;;5.63;3.40;;;;;;;19.56;60.86;100046.91;4916026;29;20044;-72
2023/08/29 11:35:53;;;;;;;5.80;3.30;;;;;;;19.49;58.76;100046.66;4912413;29;20086;-73
2023/08/29 11:38:57;;;;;;;5.35;3.92;;;;;;;19.05;58.62;100050.97;4909616;29;20477;-72
2023/08/29 11:42:00;;;;;;;5.32;3.63;;;;;;;19.04;59.54;100050.09;4910392;29;20039;-71
2023/08/29 11:45:09;;;;;;;5.63;3.30;;;;;;;19.20;61.03;100048.63;4911154;29;20074;-72
2023/08/29 11:48:12;;;;;;;6.40;3.50;;;;;;;19.45;61.23;100041.81;4895455;29;20363;-71
2023/08/29 11:51:15;;;;;;;4.75;2.80;;;;;;;19.57;60.06;100043.28;4915096;29;20039;-70
2023/08/29 11:54:45;;;;;;;5.70;3.10;;;;;;;19.65;58.23;100042.53;4915532;29;20521;-71
2023/08/29 11:57:52;;;;;;;4.32;2.90;;;;;;;19.50;58.41;100044.84;4904858;29;20095;-70
2023/08/29 12:00:56;;;;;;;4.45;3.33;;;;;;;19.61;60.25;100041.97;4911215;29;20043;-69
2023/08/29 12:03:59;;;;;;;4.43;3.22;;;;;;;19.66;56.41;100041.56;4911466;29;20043;-69
2023/08/29 12:07:33;;;;;;;5.30;2.67;;;;;;;19.71;57.72;100032.16;4911524;29;20410;-70
2023/08/29 12:10:37;;;;;;;4.93;2.10;;;;;;;19.50;58.75;100027.13;4900521;29;20043;-70
2023/08/29 12:13:43;;;;;;;5.15;2.83;;;;;;;19.56;59.63;100031.00;4901706;29;20079;-72
2023/08/29 12:16:53;;;;;;;4.50;2.50;;;;;;;19.48;60.08;100031.72;4912275;29;20163;-70
2023/08/29 12:19:57;;;;;;;4.18;2.40;;;;;;;19.51;60.45;100027.94;4910846;29;20198;-70
2023/08/29 12:23:01;;;;;;;7.88;2.58;;;;;;;19.28;57.17;100019.59;4911193;29;20139;-69
2023/08/29 12:26:05;;;;;;;3.97;2.38;;;;;;;19.34;57.69;100026.94;4915456;29;20051;-70
2023/08/29 12:29:08;;;;;;;6.18;2.33;;;;;;;19.31;58.28;100021.94;4899916;29;20517;-69
2023/08/29 12:32:16;;;;;;;4.30;2.30;;;;;;;19.34;60.33;100019.00;4914509;29;20076;-70
2023/08/29 12:35:20;;;;;;;4.53;2.08;;;;;;;19.26;60.84;100014.44;4911877;29;20166;-70
2023/08/29 12:38:26;;;;;;;3.88;1.95;;;;;;;19.22;61.08;100005.13;4911153;29;20095;-69
2023/08/29 12:41:30;;;;;;;5.38;2.55;;;;;;;19.26;59.78;100009.13;4914171;29;20091;-69
2023/08/29 12:44:33;;;;;;;4.07;2.10;;;;;;;18.95;59.09;100008.63;4915070;29;20067;-69
2023/08/29 12:47:38;;;;;;;3.35;1.95;;;;;;;18.89;61.61;100006.56;4902581;29;20058;-70
2023/08/29 12:50:42;;;;;;;5.13;2.88;;;;;;;18.80;60.69;100013.56;4914990;29;20050;-70
2023/08/29 12:53:45;;;;;;;3.42;2.10;;;;;;;18.85;60.87;100006.97;4915459;29;20211;-69
2023/08/29 12:56:48;;;;;;;3.55;2.00;;;;;;;18.84;62.27;99997.38;4914851;29;20470;-70
2023/08/29 12:59:51;;;;;;;7.43;3.58;;;;;;;18.93;63.70;99999.13;4914771;29;20048;-70
2023/08/29 13:02:55;;;;;;;6.43;3.22;;;;;;;19.00;62.76;99995.75;4914826;29;20099;-71
2023/08/29 13:05:58;;;;;;;6.18;4.00;;;;;;;19.03;63.07;100000.75;4902791;29;20106;-70
2023/08/29 13:09:02;;;;;;;4.88;3.50;;;;;;;18.90;62.18;100000.25;4914368;29;20063;-70
2023/08/29 13:12:07;;;;;;;9.02;3.53;;;;;;;19.04;62.18;100001.56;4914513;29;20476;-69
2023/08/29 13:15:16;;;;;;;5.03;3.65;;;;;;;19.04;63.46;99999.75;4914415;29;20525;-69
2023/08/29 13:18:22;;;;;;;4.18;2.92;;;;;;;19.09;63.73;100006.44;4914831;29;20095;-69
2023/08/29 13:21:26;;;;;;;6.20;3.08;;;;;;;18.91;62.11;100003.75;4914782;29;20078;-68
2023/08/29 13:24:29;;;;;;;4.38;3.38;;;;;;;18.92;61.07;100003.59;4914822;29;20051;-72
2023/08/29 13:27:32;;;;;;;4.95;3.42;;;;;;;18.89;61.02;100006.56;4912662;29;20116;-68
2023/08/29 13:30:36;;;;;;;3.80;2.88;;;;;;;18.91;61.27;100011.69;4913853;29;20051;-69
2023/08/29 13:33:40;;;;;;;5.57;3.40;;;;;;;18.93;59.81;100009.72;4914183;29;20419;-71
2023/08/29 13:36:43;;;;;;;5.72;3.10;;;;;;;19.21;60.13;100007.94;4899330;29;20099;-69
2023/08/29 13:39:53;;;;;;;5.13;2.70;;;;;;;19.34;61.52;100003.09;4910955;29;20112;-68
2023/08/29 13:42:57;;;;;;;4.57;2.65;;;;;;;19.37;59.99;100015.19;4913824;29;20080;-72
2023/08/29 13:46:00;;;;;;;7.47;3.08;;;;;;;19.29;61.90;100023.91;4914138;29;20071;-71
2023/08/29 13:49:04;;;;;;;7.78;2.28;;;;;;;18.94;64.20;100028.13;4908892;29;20063;-68
2023/08/29 13:52:08;;;;;;;5.50;1.70;;;;;;;18.86;65.04;100029.81;4910781;29;20043;-75
2023/08/29 13:55:11;;;;;;;3.70;1.45;;;;;;;18.79;65.89;100035.72;4917960;29;20043;-69
2023/08/29 13:58:14;;;;;;;5.28;1.80;;;;;;;18.48;67.53;100026.31;4913864;29;20050;-71
2023/08/29 14:01:19;;;;;;;2.85;1.00;;;;;;;18.47;68.16;100041.34;4916535;29;20058;-71
2023/08/29 14:04:26;;;;;;;6.20;1.55;;;;;;;18.50;68.54;100046.34;4916789;29;20104;-70
2023/08/29 14:07:29;;;;;;;3.45;1.13;;;;;;;18.40;68.45;100047.34;4917907;29;20091;-71
2023/08/29 14:10:33;;;;;;;2.50;0.80;;;;;;;18.21;69.54;100053.50;4917463;29;20123;-72
2023/08/29 14:13:36;;;;;;;4.13;1.13;;;;;;;18.20;69.88;100063.25;4917476;29;20047;-74
2023/08/29 14:16:39;;;;;;;5.60;1.45;;;;;;;18.14;69.55;100071.75;4917646;29;20047;-69
2023/08/29 14:19:43;;;;;;;3.22;0.93;;;;;;;18.08;70.77;100061.72;4918015;29;20074;-69